sensor_id;sensor_type;location;lat;lon;timestamp;P1;durP1;ratioP1;P2;durP2;ratioP2
13607;SDS011;6875;50.852;5.672;2023-04-25T00:02:26;16.10;;;4.20;;
13607;SDS011;6875;50.852;5.672;2023-04-25T00:04:54;12.90;;;4.03;;
13607;SDS011;6875;50.852;5.672;2023-04-25T00:07:23;10.10;;;4.27;;
13607;SDS011;6875;50.852;5.672;2023-04-25T00:09:51;16.17;;;4.13;;
13607;SDS011;6875;50.852;5.672;2023-04-25T00:12:17;16.97;;;4.60;;
13607;SDS011;6875;50.852;5.672;2023-04-25T00:14:44;14.07;;;4.70;;
13607;SDS011;6875;50.852;5.672;2023-04-25T00:17:11;11.03;;;4.40;;
13607;SDS011;6875;50.852;5.672;2023-04-25T00:19:38;13.80;;;4.27;;
13607;SDS011;6875;50.852;5.672;2023-04-25T00:22:06;16.30;;;4.93;;
13607;SDS011;6875;50.852;5.672;2023-04-25T00:24:33;12.30;;;4.97;;
13607;SDS011;6875;50.852;5.672;2023-04-25T00:26:59;15.13;;;4.80;;
13607;SDS011;6875;50.852;5.672;2023-04-25T00:29:26;13.60;;;4.87;;
13607;SDS011;6875;50.852;5.672;2023-04-25T00:31:52;12.60;;;5.17;;
13607;SDS011;6875;50.852;5.672;2023-04-25T00:34:18;13.80;;;5.53;;
13607;SDS011;6875;50.852;5.672;2023-04-25T00:36:45;15.23;;;4.53;;
13607;SDS011;6875;50.852;5.672;2023-04-25T00:39:13;10.67;;;4.53;;
13607;SDS011;6875;50.852;5.672;2023-04-25T00:41:39;16.83;;;5.00;;
13607;SDS011;6875;50.852;5.672;2023-04-25T00:44:08;13.20;;;4.77;;
13607;SDS011;6875;50.852;5.672;2023-04-25T00:46:36;13.43;;;5.40;;
13607;SDS011;6875;50.852;5.672;2023-04-25T00:49:03;14.97;;;5.17;;
13607;SDS011;6875;50.852;5.672;2023-04-25T00:51:29;15.93;;;5.00;;
13607;SDS011;6875;50.852;5.672;2023-04-25T00:53:56;13.63;;;5.00;;
13607;SDS011;6875;50.852;5.672;2023-04-25T00:56:24;14.33;;;5.53;;
13607;SDS011;6875;50.852;5.672;2023-04-25T00:58:51;15.13;;;4.73;;
13607;SDS011;6875;50.852;5.672;2023-04-25T01:01:18;13.13;;;5.33;;
13607;SDS011;6875;50.852;5.672;2023-04-25T01:03:45;17.33;;;6.27;;
13607;SDS011;6875;50.852;5.672;2023-04-25T01:06:12;13.27;;;5.90;;
13607;SDS011;6875;50.852;5.672;2023-04-25T01:08:39;22.07;;;5.93;;
13607;SDS011;6875;50.852;5.672;2023-04-25T01:11:05;18.17;;;6.47;;
13607;SDS011;6875;50.852;5.672;2023-04-25T01:13:34;14.00;;;5.77;;
13607;SDS011;6875;50.852;5.672;2023-04-25T01:16:01;18.73;;;6.67;;
13607;SDS011;6875;50.852;5.672;2023-04-25T01:18:28;24.07;;;6.17;;
13607;SDS011;6875;50.852;5.672;2023-04-25T01:20:55;15.70;;;5.60;;
13607;SDS011;6875;50.852;5.672;2023-04-25T01:23:23;12.93;;;5.63;;
13607;SDS011;6875;50.852;5.672;2023-04-25T01:25:49;14.67;;;5.10;;
13607;SDS011;6875;50.852;5.672;2023-04-25T01:28:16;20.40;;;5.03;;
13607;SDS011;6875;50.852;5.672;2023-04-25T01:30:43;19.43;;;5.90;;
13607;SDS011;6875;50.852;5.672;2023-04-25T01:33:10;19.60;;;5.70;;
13607;SDS011;6875;50.852;5.672;2023-04-25T01:35:38;13.23;;;5.60;;
13607;SDS011;6875;50.852;5.672;2023-04-25T01:38:05;15.93;;;5.07;;
13607;SDS011;6875;50.852;5.672;2023-04-25T01:40:33;21.17;;;6.07;;
13607;SDS011;6875;50.852;5.672;2023-04-25T01:43:00;15.53;;;4.93;;
13607;SDS011;6875;50.852;5.672;2023-04-25T01:45:27;21.63;;;5.90;;
13607;SDS011;6875;50.852;5.672;2023-04-25T01:47:54;19.23;;;6.30;;
13607;SDS011;6875;50.852;5.672;2023-04-25T01:50:24;16.43;;;5.10;;
13607;SDS011;6875;50.852;5.672;2023-04-25T01:52:50;16.50;;;5.37;;
13607;SDS011;6875;50.852;5.672;2023-04-25T01:55:17;17.90;;;5.43;;
13607;SDS011;6875;50.852;5.672;2023-04-25T01:57:45;19.23;;;5.93;;
13607;SDS011;6875;50.852;5.672;2023-04-25T02:00:12;20.60;;;6.03;;
13607;SDS011;6875;50.852;5.672;2023-04-25T02:02:39;19.07;;;6.10;;
13607;SDS011;6875;50.852;5.672;2023-04-25T02:05:06;16.20;;;5.53;;
13607;SDS011;6875;50.852;5.672;2023-04-25T02:07:33;19.83;;;6.30;;
13607;SDS011;6875;50.852;5.672;2023-04-25T02:10:00;18.43;;;5.63;;
13607;SDS011;6875;50.852;5.672;2023-04-25T02:12:26;13.93;;;5.10;;
13607;SDS011;6875;50.852;5.672;2023-04-25T02:14:54;19.50;;;4.87;;
13607;SDS011;6875;50.852;5.672;2023-04-25T02:17:21;23.07;;;5.87;;
13607;SDS011;6875;50.852;5.672;2023-04-25T02:19:47;13.90;;;5.07;;
13607;SDS011;6875;50.852;5.672;2023-04-25T02:22:15;18.60;;;5.20;;
13607;SDS011;6875;50.852;5.672;2023-04-25T02:24:41;13.47;;;5.43;;
13607;SDS011;6875;50.852;5.672;2023-04-25T02:27:08;19.00;;;5.80;;
13607;SDS011;6875;50.852;5.672;2023-04-25T02:29:34;17.67;;;5.67;;
13607;SDS011;6875;50.852;5.672;2023-04-25T02:32:03;16.80;;;5.90;;
13607;SDS011;6875;50.852;5.672;2023-04-25T02:34:30;19.97;;;5.77;;
13607;SDS011;6875;50.852;5.672;2023-04-25T02:36:56;19.37;;;6.03;;
13607;SDS011;6875;50.852;5.672;2023-04-25T02:39:23;24.60;;;6.47;;
13607;SDS011;6875;50.852;5.672;2023-04-25T02:41:50;20.47;;;6.67;;
13607;SDS011;6875;50.852;5.672;2023-04-25T02:44:16;16.07;;;5.80;;
13607;SDS011;6875;50.852;5.672;2023-04-25T02:46:43;17.37;;;5.27;;
13607;SDS011;6875;50.852;5.672;2023-04-25T02:49:11;21.87;;;6.70;;
13607;SDS011;6875;50.852;5.672;2023-04-25T02:51:37;20.80;;;6.03;;
13607;SDS011;6875;50.852;5.672;2023-04-25T02:54:04;21.77;;;6.57;;
13607;SDS011;6875;50.852;5.672;2023-04-25T02:56:31;19.97;;;6.50;;
13607;SDS011;6875;50.852;5.672;2023-04-25T02:58:58;21.53;;;6.50;;
13607;SDS011;6875;50.852;5.672;2023-04-25T03:01:24;15.57;;;6.60;;
13607;SDS011;6875;50.852;5.672;2023-04-25T03:03:51;17.97;;;6.73;;
13607;SDS011;6875;50.852;5.672;2023-04-25T03:06:19;15.23;;;6.07;;
13607;SDS011;6875;50.852;5.672;2023-04-25T03:08:45;22.97;;;6.40;;
13607;SDS011;6875;50.852;5.672;2023-04-25T03:11:12;16.23;;;6.50;;
13607;SDS011;6875;50.852;5.672;2023-04-25T03:13:38;13.80;;;6.10;;
13607;SDS011;6875;50.852;5.672;2023-04-25T03:16:05;22.77;;;6.57;;
13607;SDS011;6875;50.852;5.672;2023-04-25T03:18:32;20.33;;;5.80;;
13607;SDS011;6875;50.852;5.672;2023-04-25T03:20:58;22.70;;;6.03;;
13607;SDS011;6875;50.852;5.672;2023-04-25T03:23:26;16.93;;;6.40;;
13607;SDS011;6875;50.852;5.672;2023-04-25T03:25:52;15.90;;;6.83;;
13607;SDS011;6875;50.852;5.672;2023-04-25T03:28:19;16.47;;;5.90;;
13607;SDS011;6875;50.852;5.672;2023-04-25T03:30:46;21.87;;;6.87;;
13607;SDS011;6875;50.852;5.672;2023-04-25T03:33:12;18.83;;;7.07;;
13607;SDS011;6875;50.852;5.672;2023-04-25T03:35:39;15.83;;;6.23;;
13607;SDS011;6875;50.852;5.672;2023-04-25T03:38:05;18.17;;;6.10;;
13607;SDS011;6875;50.852;5.672;2023-04-25T03:40:33;16.17;;;6.47;;
13607;SDS011;6875;50.852;5.672;2023-04-25T03:43:00;17.10;;;6.40;;
13607;SDS011;6875;50.852;5.672;2023-04-25T03:45:26;14.50;;;6.17;;
13607;SDS011;6875;50.852;5.672;2023-04-25T03:47:53;24.20;;;7.67;;
13607;SDS011;6875;50.852;5.672;2023-04-25T03:50:19;13.03;;;5.57;;
13607;SDS011;6875;50.852;5.672;2023-04-25T03:52:46;12.23;;;5.77;;
13607;SDS011;6875;50.852;5.672;2023-04-25T03:55:12;26.93;;;7.60;;
13607;SDS011;6875;50.852;5.672;2023-04-25T03:57:40;16.67;;;5.70;;
13607;SDS011;6875;50.852;5.672;2023-04-25T04:00:07;25.43;;;6.53;;
13607;SDS011;6875;50.852;5.672;2023-04-25T04:02:34;22.37;;;6.33;;
13607;SDS011;6875;50.852;5.672;2023-04-25T04:05:02;17.87;;;5.67;;
13607;SDS011;6875;50.852;5.672;2023-04-25T04:07:29;21.73;;;5.90;;
13607;SDS011;6875;50.852;5.672;2023-04-25T04:09:57;21.17;;;6.03;;
13607;SDS011;6875;50.852;5.672;2023-04-25T04:12:24;14.77;;;4.63;;
13607;SDS011;6875;50.852;5.672;2023-04-25T04:14:52;18.00;;;4.93;;
13607;SDS011;6875;50.852;5.672;2023-04-25T04:17:18;17.37;;;4.50;;
13607;SDS011;6875;50.852;5.672;2023-04-25T04:19:45;17.30;;;4.97;;
13607;SDS011;6875;50.852;5.672;2023-04-25T04:22:12;19.70;;;5.17;;
13607;SDS011;6875;50.852;5.672;2023-04-25T04:24:38;21.47;;;4.73;;
13607;SDS011;6875;50.852;5.672;2023-04-25T04:27:05;17.67;;;4.77;;
13607;SDS011;6875;50.852;5.672;2023-04-25T04:29:31;14.10;;;4.27;;
13607;SDS011;6875;50.852;5.672;2023-04-25T04:31:59;10.27;;;4.20;;
13607;SDS011;6875;50.852;5.672;2023-04-25T04:34:28;10.43;;;3.67;;
13607;SDS011;6875;50.852;5.672;2023-04-25T04:36:56;13.13;;;4.83;;
13607;SDS011;6875;50.852;5.672;2023-04-25T04:39:22;13.60;;;4.40;;
13607;SDS011;6875;50.852;5.672;2023-04-25T04:41:49;11.37;;;4.07;;
13607;SDS011;6875;50.852;5.672;2023-04-25T04:44:16;12.10;;;3.70;;
13607;SDS011;6875;50.852;5.672;2023-04-25T04:46:42;10.70;;;3.77;;
13607;SDS011;6875;50.852;5.672;2023-04-25T04:49:11;17.33;;;4.20;;
13607;SDS011;6875;50.852;5.672;2023-04-25T04:51:38;11.93;;;3.90;;
13607;SDS011;6875;50.852;5.672;2023-04-25T04:54:05;14.90;;;4.20;;
13607;SDS011;6875;50.852;5.672;2023-04-25T04:56:32;12.30;;;4.10;;
13607;SDS011;6875;50.852;5.672;2023-04-25T04:58:58;12.77;;;4.17;;
13607;SDS011;6875;50.852;5.672;2023-04-25T05:01:26;10.63;;;4.17;;
13607;SDS011;6875;50.852;5.672;2023-04-25T05:03:54;19.33;;;4.17;;
13607;SDS011;6875;50.852;5.672;2023-04-25T05:06:26;14.87;;;4.60;;
13607;SDS011;6875;50.852;5.672;2023-04-25T05:08:53;9.63;;;4.40;;
13607;SDS011;6875;50.852;5.672;2023-04-25T05:11:20;14.03;;;4.40;;
13607;SDS011;6875;50.852;5.672;2023-04-25T05:13:48;12.27;;;4.23;;
13607;SDS011;6875;50.852;5.672;2023-04-25T05:16:14;12.77;;;4.20;;
13607;SDS011;6875;50.852;5.672;2023-04-25T05:18:41;13.87;;;3.83;;
13607;SDS011;6875;50.852;5.672;2023-04-25T05:21:08;14.47;;;4.07;;
13607;SDS011;6875;50.852;5.672;2023-04-25T05:23:35;17.70;;;4.47;;
13607;SDS011;6875;50.852;5.672;2023-04-25T05:26:02;14.40;;;4.30;;
13607;SDS011;6875;50.852;5.672;2023-04-25T05:28:28;15.67;;;3.73;;
13607;SDS011;6875;50.852;5.672;2023-04-25T05:30:55;12.87;;;4.27;;
13607;SDS011;6875;50.852;5.672;2023-04-25T05:33:22;10.07;;;4.00;;
13607;SDS011;6875;50.852;5.672;2023-04-25T05:35:49;10.83;;;3.87;;
13607;SDS011;6875;50.852;5.672;2023-04-25T05:38:16;8.57;;;4.13;;
13607;SDS011;6875;50.852;5.672;2023-04-25T05:40:44;19.23;;;4.20;;
13607;SDS011;6875;50.852;5.672;2023-04-25T05:43:11;12.17;;;4.03;;
13607;SDS011;6875;50.852;5.672;2023-04-25T05:45:37;12.50;;;3.80;;
13607;SDS011;6875;50.852;5.672;2023-04-25T05:48:04;12.03;;;4.47;;
13607;SDS011;6875;50.852;5.672;2023-04-25T05:50:30;9.80;;;3.83;;
13607;SDS011;6875;50.852;5.672;2023-04-25T05:52:57;12.20;;;3.90;;
13607;SDS011;6875;50.852;5.672;2023-04-25T05:55:24;11.13;;;3.67;;
13607;SDS011;6875;50.852;5.672;2023-04-25T05:57:52;11.57;;;3.73;;
13607;SDS011;6875;50.852;5.672;2023-04-25T06:00:18;16.87;;;4.33;;
13607;SDS011;6875;50.852;5.672;2023-04-25T06:02:46;13.20;;;3.23;;
13607;SDS011;6875;50.852;5.672;2023-04-25T06:05:12;11.23;;;3.33;;
13607;SDS011;6875;50.852;5.672;2023-04-25T06:07:39;14.93;;;4.10;;
13607;SDS011;6875;50.852;5.672;2023-04-25T06:10:06;6.80;;;3.10;;
13607;SDS011;6875;50.852;5.672;2023-04-25T06:12:34;6.53;;;3.03;;
13607;SDS011;6875;50.852;5.672;2023-04-25T06:15:02;8.77;;;3.77;;
13607;SDS011;6875;50.852;5.672;2023-04-25T06:17:28;8.47;;;3.13;;
13607;SDS011;6875;50.852;5.672;2023-04-25T06:19:55;5.50;;;2.63;;
13607;SDS011;6875;50.852;5.672;2023-04-25T06:22:22;11.07;;;3.00;;
13607;SDS011;6875;50.852;5.672;2023-04-25T06:24:48;11.07;;;3.50;;
13607;SDS011;6875;50.852;5.672;2023-04-25T06:27:15;12.80;;;3.10;;
13607;SDS011;6875;50.852;5.672;2023-04-25T06:29:41;8.00;;;2.73;;
13607;SDS011;6875;50.852;5.672;2023-04-25T06:32:09;5.10;;;2.27;;
13607;SDS011;6875;50.852;5.672;2023-04-25T06:34:35;12.80;;;2.77;;
13607;SDS011;6875;50.852;5.672;2023-04-25T06:37:02;9.40;;;2.50;;
13607;SDS011;6875;50.852;5.672;2023-04-25T06:39:28;6.97;;;2.67;;
13607;SDS011;6875;50.852;5.672;2023-04-25T06:41:55;7.53;;;2.70;;
13607;SDS011;6875;50.852;5.672;2023-04-25T06:44:22;7.17;;;2.13;;
13607;SDS011;6875;50.852;5.672;2023-04-25T06:46:51;10.07;;;2.80;;
13607;SDS011;6875;50.852;5.672;2023-04-25T06:49:18;7.63;;;2.30;;
13607;SDS011;6875;50.852;5.672;2023-04-25T06:51:45;7.40;;;2.50;;
13607;SDS011;6875;50.852;5.672;2023-04-25T06:54:11;7.10;;;2.43;;
13607;SDS011;6875;50.852;5.672;2023-04-25T06:56:38;8.13;;;2.83;;
13607;SDS011;6875;50.852;5.672;2023-04-25T06:59:04;5.47;;;2.07;;
13607;SDS011;6875;50.852;5.672;2023-04-25T07:01:31;7.27;;;2.17;;
13607;SDS011;6875;50.852;5.672;2023-04-25T07:03:57;6.73;;;2.33;;
13607;SDS011;6875;50.852;5.672;2023-04-25T07:06:25;5.73;;;2.33;;
13607;SDS011;6875;50.852;5.672;2023-04-25T07:08:52;4.47;;;2.13;;
13607;SDS011;6875;50.852;5.672;2023-04-25T07:11:19;8.17;;;2.53;;
13607;SDS011;6875;50.852;5.672;2023-04-25T07:13:46;7.50;;;2.73;;
13607;SDS011;6875;50.852;5.672;2023-04-25T07:16:12;10.60;;;2.87;;
13607;SDS011;6875;50.852;5.672;2023-04-25T07:18:39;7.40;;;2.40;;
13607;SDS011;6875;50.852;5.672;2023-04-25T07:21:05;7.13;;;2.47;;
13607;SDS011;6875;50.852;5.672;2023-04-25T07:23:33;7.07;;;2.33;;
13607;SDS011;6875;50.852;5.672;2023-04-25T07:26:00;7.03;;;2.43;;
13607;SDS011;6875;50.852;5.672;2023-04-25T07:28:26;12.30;;;2.27;;
13607;SDS011;6875;50.852;5.672;2023-04-25T07:30:53;8.27;;;2.23;;
13607;SDS011;6875;50.852;5.672;2023-04-25T07:33:19;10.10;;;2.90;;
13607;SDS011;6875;50.852;5.672;2023-04-25T07:35:46;11.30;;;3.03;;
13607;SDS011;6875;50.852;5.672;2023-04-25T07:38:13;6.33;;;2.63;;
13607;SDS011;6875;50.852;5.672;2023-04-25T07:40:41;12.57;;;2.50;;
13607;SDS011;6875;50.852;5.672;2023-04-25T07:43:07;10.33;;;2.53;;
13607;SDS011;6875;50.852;5.672;2023-04-25T07:45:37;5.47;;;2.63;;
13607;SDS011;6875;50.852;5.672;2023-04-25T07:48:07;7.57;;;2.27;;
13607;SDS011;6875;50.852;5.672;2023-04-25T07:50:37;11.30;;;2.27;;
13607;SDS011;6875;50.852;5.672;2023-04-25T07:53:04;9.70;;;2.60;;
13607;SDS011;6875;50.852;5.672;2023-04-25T07:55:31;11.57;;;2.07;;
13607;SDS011;6875;50.852;5.672;2023-04-25T07:57:59;11.07;;;2.10;;
13607;SDS011;6875;50.852;5.672;2023-04-25T08:00:26;7.70;;;1.63;;
13607;SDS011;6875;50.852;5.672;2023-04-25T08:02:53;8.27;;;1.80;;
13607;SDS011;6875;50.852;5.672;2023-04-25T08:05:20;6.57;;;2.20;;
13607;SDS011;6875;50.852;5.672;2023-04-25T08:07:50;7.97;;;2.00;;
13607;SDS011;6875;50.852;5.672;2023-04-25T08:10:22;6.30;;;2.00;;
13607;SDS011;6875;50.852;5.672;2023-04-25T08:12:49;8.27;;;1.60;;
13607;SDS011;6875;50.852;5.672;2023-04-25T08:15:19;10.83;;;1.73;;
13607;SDS011;6875;50.852;5.672;2023-04-25T08:17:49;6.77;;;2.03;;
13607;SDS011;6875;50.852;5.672;2023-04-25T08:22:59;7.57;;;1.80;;
13607;SDS011;6875;50.852;5.672;2023-04-25T08:25:27;6.53;;;1.83;;
13607;SDS011;6875;50.852;5.672;2023-04-25T08:27:53;7.53;;;2.00;;
13607;SDS011;6875;50.852;5.672;2023-04-25T08:30:22;7.87;;;1.70;;
13607;SDS011;6875;50.852;5.672;2023-04-25T08:32:49;7.93;;;1.70;;
13607;SDS011;6875;50.852;5.672;2023-04-25T08:35:16;6.93;;;2.03;;
13607;SDS011;6875;50.852;5.672;2023-04-25T08:37:42;6.97;;;1.83;;
13607;SDS011;6875;50.852;5.672;2023-04-25T08:40:10;12.07;;;2.07;;
13607;SDS011;6875;50.852;5.672;2023-04-25T08:42:38;8.57;;;1.93;;
13607;SDS011;6875;50.852;5.672;2023-04-25T08:45:06;5.70;;;1.90;;
13607;SDS011;6875;50.852;5.672;2023-04-25T08:47:35;7.37;;;2.33;;
13607;SDS011;6875;50.852;5.672;2023-04-25T08:50:04;7.00;;;1.87;;
13607;SDS011;6875;50.852;5.672;2023-04-25T08:52:32;7.37;;;2.00;;
13607;SDS011;6875;50.852;5.672;2023-04-25T08:55:02;5.07;;;2.30;;
13607;SDS011;6875;50.852;5.672;2023-04-25T08:57:29;6.00;;;1.93;;
13607;SDS011;6875;50.852;5.672;2023-04-25T08:59:57;6.87;;;2.07;;
13607;SDS011;6875;50.852;5.672;2023-04-25T09:02:24;9.20;;;2.47;;
13607;SDS011;6875;50.852;5.672;2023-04-25T09:04:52;3.30;;;1.40;;
13607;SDS011;6875;50.852;5.672;2023-04-25T09:07:21;6.70;;;1.90;;
13607;SDS011;6875;50.852;5.672;2023-04-25T09:09:47;5.17;;;1.83;;
13607;SDS011;6875;50.852;5.672;2023-04-25T09:12:14;4.33;;;1.30;;
13607;SDS011;6875;50.852;5.672;2023-04-25T09:14:40;7.20;;;1.50;;
13607;SDS011;6875;50.852;5.672;2023-04-25T09:17:08;2.90;;;1.20;;
13607;SDS011;6875;50.852;5.672;2023-04-25T09:19:35;8.30;;;1.77;;
13607;SDS011;6875;50.852;5.672;2023-04-25T09:22:07;7.30;;;1.57;;
13607;SDS011;6875;50.852;5.672;2023-04-25T09:24:35;6.83;;;1.80;;
13607;SDS011;6875;50.852;5.672;2023-04-25T09:27:03;4.03;;;1.80;;
13607;SDS011;6875;50.852;5.672;2023-04-25T09:29:30;7.67;;;1.53;;
13607;SDS011;6875;50.852;5.672;2023-04-25T09:32:10;6.60;;;1.20;;
13607;SDS011;6875;50.852;5.672;2023-04-25T09:34:38;2.90;;;1.23;;
13607;SDS011;6875;50.852;5.672;2023-04-25T09:37:07;5.53;;;1.33;;
13607;SDS011;6875;50.852;5.672;2023-04-25T09:39:35;6.73;;;1.03;;
13607;SDS011;6875;50.852;5.672;2023-04-25T09:42:02;4.37;;;0.93;;
13607;SDS011;6875;50.852;5.672;2023-04-25T09:44:29;4.07;;;1.83;;
13607;SDS011;6875;50.852;5.672;2023-04-25T09:46:56;4.43;;;1.70;;
13607;SDS011;6875;50.852;5.672;2023-04-25T09:49:24;4.93;;;1.43;;
13607;SDS011;6875;50.852;5.672;2023-04-25T09:51:55;7.10;;;1.50;;
13607;SDS011;6875;50.852;5.672;2023-04-25T09:54:26;3.80;;;1.33;;
13607;SDS011;6875;50.852;5.672;2023-04-25T09:56:53;3.40;;;1.17;;
13607;SDS011;6875;50.852;5.672;2023-04-25T09:59:20;8.37;;;2.00;;
13607;SDS011;6875;50.852;5.672;2023-04-25T10:01:48;4.60;;;1.77;;
13607;SDS011;6875;50.852;5.672;2023-04-25T10:04:16;8.80;;;1.80;;
13607;SDS011;6875;50.852;5.672;2023-04-25T10:06:45;8.50;;;1.60;;
13607;SDS011;6875;50.852;5.672;2023-04-25T10:09:15;5.53;;;1.50;;
13607;SDS011;6875;50.852;5.672;2023-04-25T10:11:44;6.30;;;1.83;;
13607;SDS011;6875;50.852;5.672;2023-04-25T10:14:12;6.07;;;2.00;;
13607;SDS011;6875;50.852;5.672;2023-04-25T10:16:39;4.97;;;1.43;;
13607;SDS011;6875;50.852;5.672;2023-04-25T10:19:06;2.97;;;1.10;;
13607;SDS011;6875;50.852;5.672;2023-04-25T10:21:33;5.37;;;1.30;;
13607;SDS011;6875;50.852;5.672;2023-04-25T10:24:00;1.97;;;0.73;;
13607;SDS011;6875;50.852;5.672;2023-04-25T10:26:27;3.40;;;0.90;;
13607;SDS011;6875;50.852;5.672;2023-04-25T10:28:58;5.10;;;1.10;;
13607;SDS011;6875;50.852;5.672;2023-04-25T10:31:26;3.83;;;1.33;;
13607;SDS011;6875;50.852;5.672;2023-04-25T10:33:53;5.47;;;1.17;;
13607;SDS011;6875;50.852;5.672;2023-04-25T10:36:21;2.57;;;0.83;;
13607;SDS011;6875;50.852;5.672;2023-04-25T10:38:48;1.77;;;0.93;;
13607;SDS011;6875;50.852;5.672;2023-04-25T10:41:17;4.07;;;0.90;;
13607;SDS011;6875;50.852;5.672;2023-04-25T10:43:44;4.07;;;1.03;;
13607;SDS011;6875;50.852;5.672;2023-04-25T10:46:19;3.53;;;0.87;;
13607;SDS011;6875;50.852;5.672;2023-04-25T10:48:49;3.13;;;1.10;;
13607;SDS011;6875;50.852;5.672;2023-04-25T10:51:17;3.00;;;1.10;;
13607;SDS011;6875;50.852;5.672;2023-04-25T10:53:45;3.10;;;1.40;;
13607;SDS011;6875;50.852;5.672;2023-04-25T10:56:12;4.60;;;1.53;;
13607;SDS011;6875;50.852;5.672;2023-04-25T10:58:43;6.60;;;1.57;;
13607;SDS011;6875;50.852;5.672;2023-04-25T11:01:10;10.60;;;1.67;;
13607;SDS011;6875;50.852;5.672;2023-04-25T11:03:42;8.10;;;1.60;;
13607;SDS011;6875;50.852;5.672;2023-04-25T11:06:12;6.43;;;1.30;;
13607;SDS011;6875;50.852;5.672;2023-04-25T11:08:47;7.70;;;1.67;;
13607;SDS011;6875;50.852;5.672;2023-04-25T11:11:14;4.60;;;1.50;;
13607;SDS011;6875;50.852;5.672;2023-04-25T11:13:41;5.57;;;2.00;;
13607;SDS011;6875;50.852;5.672;2023-04-25T11:16:08;4.30;;;1.10;;
13607;SDS011;6875;50.852;5.672;2023-04-25T11:18:34;4.20;;;1.00;;
13607;SDS011;6875;50.852;5.672;2023-04-25T11:21:03;2.27;;;1.00;;
13607;SDS011;6875;50.852;5.672;2023-04-25T11:23:30;4.47;;;1.40;;
13607;SDS011;6875;50.852;5.672;2023-04-25T11:25:56;5.63;;;1.00;;
13607;SDS011;6875;50.852;5.672;2023-04-25T11:28:25;1.40;;;0.90;;
13607;SDS011;6875;50.852;5.672;2023-04-25T11:30:52;2.20;;;0.90;;
13607;SDS011;6875;50.852;5.672;2023-04-25T11:33:22;3.80;;;1.07;;
13607;SDS011;6875;50.852;5.672;2023-04-25T11:35:53;3.13;;;0.80;;
13607;SDS011;6875;50.852;5.672;2023-04-25T11:38:24;3.23;;;0.90;;
13607;SDS011;6875;50.852;5.672;2023-04-25T11:40:51;3.23;;;0.80;;
13607;SDS011;6875;50.852;5.672;2023-04-25T11:43:20;0.93;;;0.60;;
13607;SDS011;6875;50.852;5.672;2023-04-25T11:45:47;2.67;;;0.93;;
13607;SDS011;6875;50.852;5.672;2023-04-25T11:48:14;3.03;;;1.10;;
13607;SDS011;6875;50.852;5.672;2023-04-25T11:50:41;1.93;;;0.90;;
13607;SDS011;6875;50.852;5.672;2023-04-25T11:53:08;3.77;;;1.30;;
13607;SDS011;6875;50.852;5.672;2023-04-25T11:55:37;3.33;;;1.10;;
13607;SDS011;6875;50.852;5.672;2023-04-25T11:58:03;4.70;;;1.10;;
13607;SDS011;6875;50.852;5.672;2023-04-25T12:00:31;3.27;;;1.20;;
13607;SDS011;6875;50.852;5.672;2023-04-25T12:02:58;3.07;;;1.30;;
13607;SDS011;6875;50.852;5.672;2023-04-25T12:05:25;4.90;;;1.20;;
13607;SDS011;6875;50.852;5.672;2023-04-25T12:07:53;0.93;;;0.73;;
13607;SDS011;6875;50.852;5.672;2023-04-25T12:10:23;2.20;;;1.00;;
13607;SDS011;6875;50.852;5.672;2023-04-25T12:12:53;2.77;;;0.90;;
13607;SDS011;6875;50.852;5.672;2023-04-25T12:15:22;6.43;;;1.60;;
13607;SDS011;6875;50.852;5.672;2023-04-25T12:17:50;5.37;;;1.23;;
13607;SDS011;6875;50.852;5.672;2023-04-25T12:20:18;5.03;;;1.00;;
13607;SDS011;6875;50.852;5.672;2023-04-25T12:22:48;3.13;;;0.93;;
13607;SDS011;6875;50.852;5.672;2023-04-25T12:28:10;1.27;;;0.87;;
13607;SDS011;6875;50.852;5.672;2023-04-25T12:30:52;2.77;;;0.90;;
13607;SDS011;6875;50.852;5.672;2023-04-25T12:33:20;1.40;;;0.80;;
13607;SDS011;6875;50.852;5.672;2023-04-25T12:35:46;4.70;;;1.00;;
13607;SDS011;6875;50.852;5.672;2023-04-25T12:38:20;4.77;;;0.83;;
13607;SDS011;6875;50.852;5.672;2023-04-25T12:40:47;4.60;;;0.93;;
13607;SDS011;6875;50.852;5.672;2023-04-25T12:43:18;3.27;;;1.10;;
13607;SDS011;6875;50.852;5.672;2023-04-25T12:45:47;7.10;;;2.10;;
13607;SDS011;6875;50.852;5.672;2023-04-25T12:48:15;4.60;;;1.10;;
13607;SDS011;6875;50.852;5.672;2023-04-25T12:50:41;4.57;;;1.70;;
13607;SDS011;6875;50.852;5.672;2023-04-25T12:53:08;5.77;;;1.40;;
13607;SDS011;6875;50.852;5.672;2023-04-25T12:55:35;5.93;;;1.33;;
13607;SDS011;6875;50.852;5.672;2023-04-25T12:58:01;3.10;;;1.20;;
13607;SDS011;6875;50.852;5.672;2023-04-25T13:00:29;6.03;;;1.20;;
13607;SDS011;6875;50.852;5.672;2023-04-25T13:02:56;3.60;;;0.97;;
13607;SDS011;6875;50.852;5.672;2023-04-25T13:05:23;2.43;;;1.27;;
13607;SDS011;6875;50.852;5.672;2023-04-25T13:07:49;3.23;;;1.17;;
13607;SDS011;6875;50.852;5.672;2023-04-25T13:10:16;6.90;;;1.20;;
13607;SDS011;6875;50.852;5.672;2023-04-25T13:12:43;6.87;;;1.50;;
13607;SDS011;6875;50.852;5.672;2023-04-25T13:15:10;3.43;;;1.23;;
13607;SDS011;6875;50.852;5.672;2023-04-25T13:17:38;4.53;;;1.37;;
13607;SDS011;6875;50.852;5.672;2023-04-25T13:20:06;5.80;;;1.60;;
13607;SDS011;6875;50.852;5.672;2023-04-25T13:22:34;5.80;;;1.67;;
13607;SDS011;6875;50.852;5.672;2023-04-25T13:25:01;2.40;;;1.17;;
13607;SDS011;6875;50.852;5.672;2023-04-25T13:27:28;5.97;;;1.33;;
13607;SDS011;6875;50.852;5.672;2023-04-25T13:29:57;4.67;;;1.60;;
13607;SDS011;6875;50.852;5.672;2023-04-25T13:32:23;4.37;;;1.37;;
13607;SDS011;6875;50.852;5.672;2023-04-25T13:34:51;4.50;;;1.30;;
13607;SDS011;6875;50.852;5.672;2023-04-25T13:37:19;3.97;;;1.40;;
13607;SDS011;6875;50.852;5.672;2023-04-25T13:39:45;5.00;;;1.60;;
13607;SDS011;6875;50.852;5.672;2023-04-25T13:42:12;7.13;;;1.77;;
13607;SDS011;6875;50.852;5.672;2023-04-25T13:44:38;5.53;;;1.60;;
13607;SDS011;6875;50.852;5.672;2023-04-25T13:47:05;5.43;;;1.60;;
13607;SDS011;6875;50.852;5.672;2023-04-25T13:49:31;4.20;;;1.50;;
13607;SDS011;6875;50.852;5.672;2023-04-25T13:51:59;5.17;;;1.73;;
13607;SDS011;6875;50.852;5.672;2023-04-25T13:54:25;3.83;;;2.07;;
13607;SDS011;6875;50.852;5.672;2023-04-25T13:56:52;6.70;;;2.23;;
13607;SDS011;6875;50.852;5.672;2023-04-25T13:59:23;5.73;;;1.63;;
13607;SDS011;6875;50.852;5.672;2023-04-25T14:01:50;8.60;;;1.70;;
13607;SDS011;6875;50.852;5.672;2023-04-25T14:04:17;7.23;;;1.80;;
13607;SDS011;6875;50.852;5.672;2023-04-25T14:06:48;5.33;;;1.40;;
13607;SDS011;6875;50.852;5.672;2023-04-25T14:09:16;2.87;;;1.20;;
13607;SDS011;6875;50.852;5.672;2023-04-25T14:11:42;2.47;;;1.13;;
13607;SDS011;6875;50.852;5.672;2023-04-25T14:14:09;5.83;;;1.40;;
13607;SDS011;6875;50.852;5.672;2023-04-25T14:16:37;3.97;;;1.10;;
13607;SDS011;6875;50.852;5.672;2023-04-25T14:19:04;5.43;;;1.40;;
13607;SDS011;6875;50.852;5.672;2023-04-25T14:21:30;8.53;;;1.30;;
13607;SDS011;6875;50.852;5.672;2023-04-25T14:23:58;3.23;;;1.40;;
13607;SDS011;6875;50.852;5.672;2023-04-25T14:26:26;3.80;;;1.43;;
13607;SDS011;6875;50.852;5.672;2023-04-25T14:28:52;2.63;;;1.10;;
13607;SDS011;6875;50.852;5.672;2023-04-25T14:31:19;4.03;;;1.20;;
13607;SDS011;6875;50.852;5.672;2023-04-25T14:33:46;4.27;;;1.63;;
13607;SDS011;6875;50.852;5.672;2023-04-25T14:36:12;7.50;;;1.17;;
13607;SDS011;6875;50.852;5.672;2023-04-25T14:38:39;3.13;;;1.10;;
13607;SDS011;6875;50.852;5.672;2023-04-25T14:41:05;5.63;;;1.60;;
13607;SDS011;6875;50.852;5.672;2023-04-25T14:43:33;2.30;;;1.10;;
13607;SDS011;6875;50.852;5.672;2023-04-25T14:46:00;5.63;;;2.20;;
13607;SDS011;6875;50.852;5.672;2023-04-25T14:48:27;3.83;;;1.57;;
13607;SDS011;6875;50.852;5.672;2023-04-25T14:50:53;4.20;;;1.40;;
13607;SDS011;6875;50.852;5.672;2023-04-25T14:53:20;5.50;;;1.30;;
13607;SDS011;6875;50.852;5.672;2023-04-25T14:55:46;4.13;;;1.40;;
13607;SDS011;6875;50.852;5.672;2023-04-25T14:58:13;4.20;;;1.50;;
13607;SDS011;6875;50.852;5.672;2023-04-25T15:00:42;6.37;;;1.43;;
13607;SDS011;6875;50.852;5.672;2023-04-25T15:03:09;2.73;;;0.80;;